Time;durP1;ratioP1;P1;durP2;ratioP2;P2;SDS_P1;SDS_P2;PMS_P1;PMS_P2;Temp;Humidity;BMP_temperature;BMP_pressure;BME280_temperature;BME280_humidity;BME280_pressure;Samples;Min_cycle;Max_cycle;Signal;HPM_P1;HPM_P2
2023/06/16 00:00:19;;;;;;;0.00;0.00;;;11.80;99.90;;;;;;5028176;28;20057;-87
2023/06/16 00:02:48;;;;;;;0.10;0.10;;;11.80;99.90;;;;;;5010939;28;20140;-85
2023/06/16 00:05:14;;;;;;;0.05;0.00;;;13.00;99.90;;;;;;5026423;28;20084;-86
2023/06/16 00:07:40;;;;;;;0.10;0.10;;;11.70;99.90;;;;;;5029023;28;20049;-86
2023/06/16 00:10:07;;;;;;;0.00;0.00;;;11.70;99.90;;;;;;5027465;28;20397;-85
2023/06/16 00:12:36;;;;;;;1.13;0.15;;;11.70;99.90;;;;;;5028216;28;20065;-86
2023/06/16 00:15:02;;;;;;;0.15;0.15;;;11.70;99.90;;;;;;5029134;28;21074;-87
2023/06/16 00:17:28;;;;;;;1.13;0.80;;;11.80;99.90;;;;;;5029748;28;20066;-87
2023/06/16 00:19:57;;;;;;;0.20;0.10;;;12.40;99.90;;;;;;5011604;28;20061;-86
2023/06/16 00:22:27;;;;;;;0.98;0.10;;;11.70;99.90;;;;;;5027516;28;20057;-86
2023/06/16 00:24:53;;;;;;;1.38;0.88;;;11.60;99.90;;;;;;5028291;28;20112;-86
2023/06/16 00:27:24;;;;;;;0.03;0.03;;;11.50;99.90;;;;;;5028828;28;20080;-87
2023/06/16 00:29:50;;;;;;;0.52;0.43;;;11.50;99.90;;;;;;5048345;28;20080;-86
2023/06/16 00:32:16;;;;;;;0.22;0.20;;;12.90;99.90;;;;;;5046710;28;20087;-87
2023/06/16 00:34:42;;;;;;;0.10;0.10;;;12.80;99.90;;;;;;5048553;28;20076;-87
2023/06/16 00:37:08;;;;;;;0.00;0.00;;;11.30;99.90;;;;;;5048079;28;20193;-88
2023/06/16 00:39:33;;;;;;;0.00;0.00;;;11.20;99.90;;;;;;5046741;28;20041;-87
2023/06/16 00:41:59;;;;;;;0.10;0.10;;;11.20;99.90;;;;;;5047981;28;20055;-87
2023/06/16 00:44:25;;;;;;;2.50;0.38;;;11.30;99.90;;;;;;5048335;28;20120;-86
2023/06/16 00:46:51;;;;;;;0.95;0.43;;;11.20;99.90;;;;;;5029350;28;20468;-87
2023/06/16 00:49:17;;;;;;;0.10;0.10;;;11.30;99.90;;;;;;5048614;28;20059;-88
2023/06/16 00:51:44;;;;;;;2.63;0.70;;;11.30;99.90;;;;;;5048147;28;20498;-86
2023/06/16 00:54:12;;;;;;;0.00;0.00;;;11.30;99.90;;;;;;5046425;28;20900;-87
2023/06/16 00:56:41;;;;;;;1.15;0.70;;;11.30;99.90;;;;;;5048216;28;20051;-89
2023/06/16 00:59:07;;;;;;;0.10;0.10;;;11.20;99.90;;;;;;5046448;28;20523;-86
2023/06/16 01:01:34;;;;;;;0.00;0.00;;;11.30;99.90;;;;;;5047810;28;20068;-87
2023/06/16 01:04:00;;;;;;;0.08;0.08;;;11.30;99.90;;;;;;5047540;28;20059;-86
2023/06/16 01:06:35;;;;;;;0.00;0.00;;;11.40;99.90;;;;;;5047800;28;20041;-88
2023/06/16 01:09:23;;;;;;;0.40;0.40;;;11.40;1.00;;;;;;5047425;28;20591;-87
2023/06/16 01:12:12;;;;;;;1.38;0.15;;;11.50;99.90;;;;;;5046543;28;20052;-87
2023/06/16 01:14:47;;;;;;;0.00;0.00;;;11.50;99.90;;;;;;5048304;28;20128;-87
2023/06/16 01:17:15;;;;;;;0.57;0.40;;;11.50;99.90;;;;;;5047685;28;20067;-87
2023/06/16 01:20:06;;;;;;;0.82;0.65;;;11.40;99.90;;;;;;5047819;28;20601;-87
2023/06/16 01:22:57;;;;;;;0.28;0.25;;;11.40;99.90;;;;;;5047890;28;20049;-87
2023/06/16 01:25:28;;;;;;;0.00;0.00;;;11.40;99.90;;;;;;5048232;28;20053;-87
2023/06/16 01:27:57;;;;;;;0.82;0.57;;;11.40;99.90;;;;;;5046299;28;20045;-88
2023/06/16 01:30:24;;;;;;;1.52;0.57;;;11.50;99.90;;;;;;5030148;28;20545;-86
2023/06/16 01:32:56;;;;;;;0.30;0.30;;;12.50;99.90;;;;;;5047848;28;20052;-87
2023/06/16 01:35:26;;;;;;;2.42;0.40;;;11.40;99.90;;;;;;5047787;28;20403;-87
2023/06/16 01:37:55;;;;;;;0.00;0.00;;;11.40;99.90;;;;;;5062918;28;20454;-87
2023/06/16 01:40:26;;;;;;;0.10;0.10;;;11.30;99.90;;;;;;5046499;28;20040;-87
2023/06/16 01:42:52;;;;;;;0.08;0.08;;;11.20;99.90;;;;;;5047190;28;20052;-88
2023/06/16 01:45:19;;;;;;;0.20;0.15;;;11.20;99.90;;;;;;5048824;28;20698;-86
2023/06/16 01:47:46;;;;;;;0.00;0.00;;;11.10;99.90;;;;;;5049061;28;20582;-87
2023/06/16 01:50:12;;;;;;;0.10;0.10;;;12.40;99.90;;;;;;5048685;28;20129;-87
2023/06/16 01:52:38;;;;;;;0.28;0.28;;;11.10;99.90;;;;;;5047484;28;20049;-87
2023/06/16 01:55:04;;;;;;;0.10;0.00;;;11.20;99.90;;;;;;5048948;28;20071;-86
2023/06/16 01:57:30;;;;;;;0.30;0.30;;;11.10;99.90;;;;;;5047014;28;20044;-86
2023/06/16 02:00:15;;;;;;;0.32;0.32;;;11.10;99.90;;;;;;5048452;28;20178;-86
2023/06/16 02:02:50;;;;;;;0.32;0.32;;;11.20;99.90;;;;;;5051044;28;20064;-86
2023/06/16 02:05:23;;;;;;;0.10;0.10;;;11.90;99.90;;;;;;5053970;28;20393;-87
2023/06/16 02:07:52;;;;;;;0.47;0.45;;;11.10;99.90;;;;;;5057061;28;20055;-86
2023/06/16 02:10:21;;;;;;;0.43;0.20;;;11.00;99.90;;;;;;5048794;28;20580;-85
2023/06/16 02:12:48;;;;;;;0.43;0.43;;;10.90;99.90;;;;;;5049484;28;20045;-86
2023/06/16 02:15:19;;;;;;;0.20;0.20;;;10.80;99.90;;;;;;5049022;28;20395;-86
2023/06/16 02:17:46;;;;;;;0.28;0.20;;;10.70;99.90;;;;;;5051206;28;20507;-86
2023/06/16 02:20:20;;;;;;;1.75;0.35;;;10.70;99.90;;;;;;5050958;28;20387;-86
2023/06/16 02:22:46;;;;;;;0.00;0.00;;;10.80;99.90;;;;;;5070723;28;20024;-86
2023/06/16 02:25:12;;;;;;;0.55;0.30;;;10.70;99.90;;;;;;5054798;28;20041;-87
2023/06/16 02:27:38;;;;;;;4.28;1.00;;;10.80;99.90;;;;;;5072889;28;20032;-86
2023/06/16 02:30:04;;;;;;;0.00;0.00;;;10.80;99.90;;;;;;5075696;28;20037;-87
2023/06/16 02:32:30;;;;;;;0.85;0.75;;;11.00;99.90;;;;;;5053197;28;20205;-87
2023/06/16 02:34:57;;;;;;;0.80;0.43;;;10.90;99.90;;;;;;5072796;28;20259;-87
2023/06/16 02:37:25;;;;;;;0.10;0.10;;;10.90;99.90;;;;;;5077949;28;20043;-87
2023/06/16 02:39:54;;;;;;;0.08;0.08;;;10.90;99.90;;;;;;5077294;28;20029;-87
2023/06/16 02:42:19;;;;;;;0.80;0.50;;;10.70;99.90;;;;;;5036578;28;20060;-87
2023/06/16 02:44:45;;;;;;;1.27;0.32;;;10.60;99.90;;;;;;5037448;28;20057;-87
2023/06/16 02:47:10;;;;;;;0.00;0.00;;;10.50;99.90;;;;;;5038205;28;20058;-88
2023/06/16 02:49:36;;;;;;;0.10;0.10;;;10.40;99.90;;;;;;5037823;28;20045;-86
2023/06/16 02:52:02;;;;;;;0.00;0.00;;;10.40;99.90;;;;;;5022815;28;20077;-88
2023/06/16 02:54:28;;;;;;;0.17;0.10;;;10.40;99.90;;;;;;5014797;28;20083;-86
2023/06/16 02:56:53;;;;;;;0.00;0.00;;;10.40;99.90;;;;;;5012487;28;20049;-87
2023/06/16 02:59:19;;;;;;;0.10;0.10;;;10.40;99.90;;;;;;5014152;28;20639;-88
2023/06/16 03:01:45;;;;;;;0.00;0.00;;;10.40;99.90;;;;;;5013564;28;20546;-87
2023/06/16 03:04:11;;;;;;;0.00;0.00;;;11.00;99.90;;;;;;5029063;28;20133;-88
2023/06/16 03:06:36;;;;;;;0.17;0.17;;;10.40;99.90;;;;;;5013279;28;20050;-87
2023/06/16 03:09:06;;;;;;;0.00;0.00;;;10.50;99.90;;;;;;5011894;28;20114;-86
2023/06/16 03:11:32;;;;;;;0.20;0.20;;;10.40;99.90;;;;;;5011733;28;20065;-86
2023/06/16 03:13:58;;;;;;;0.57;0.57;;;10.50;99.90;;;;;;5012194;28;20080;-87
2023/06/16 03:16:26;;;;;;;0.95;0.88;;;10.50;99.90;;;;;;5027256;28;20404;-87
2023/06/16 03:18:53;;;;;;;1.38;0.57;;;10.50;99.90;;;;;;5011900;28;20659;-88
2023/06/16 03:21:19;;;;;;;0.30;0.30;;;10.60;99.90;;;;;;5011620;28;20257;-88
2023/06/16 03:23:50;;;;;;;0.45;0.38;;;10.60;99.90;;;;;;5009548;28;20108;-87
2023/06/16 03:26:17;;;;;;;0.00;0.00;;;10.60;99.90;;;;;;5010107;28;20119;-87
2023/06/16 03:28:43;;;;;;;0.00;0.00;;;10.60;99.90;;;;;;5009103;28;21003;-88
2023/06/16 03:31:10;;;;;;;0.13;0.10;;;12.00;99.90;;;;;;5010321;28;20076;-87
2023/06/16 03:33:36;;;;;;;0.40;0.30;;;10.50;99.90;;;;;;5010641;28;20099;-87
2023/06/16 03:36:02;;;;;;;0.43;0.20;;;10.50;99.90;;;;;;5009130;28;20089;-88
2023/06/16 03:38:27;;;;;;;0.82;0.73;;;10.60;90.10;;;;;;5009839;28;20060;-86
2023/06/16 03:40:54;;;;;;;0.25;0.25;;;10.70;99.90;;;;;;4990947;28;20050;-87
2023/06/16 03:43:20;;;;;;;3.35;0.80;;;10.80;99.90;;;;;;5008116;28;20057;-88
2023/06/16 03:45:45;;;;;;;0.63;0.45;;;10.90;99.90;;;;;;5009470;28;20455;-87
2023/06/16 03:48:11;;;;;;;0.00;0.00;;;11.00;99.90;;;;;;5008913;28;20057;-88
2023/06/16 03:50:37;;;;;;;0.28;0.28;;;11.30;1.00;;;;;;5007426;28;20045;-85
2023/06/16 03:53:05;;;;;;;0.10;0.10;;;11.60;1.00;;;;;;4991753;28;20057;-87
2023/06/16 03:55:30;;;;;;;0.20;0.20;;;11.30;1.00;;;;;;5009405;28;20835;-87
2023/06/16 03:57:56;;;;;;;0.63;0.22;;;11.50;1.00;;;;;;5024028;28;20049;-86
2023/06/16 04:00:22;;;;;;;0.30;0.30;;;11.60;1.00;;;;;;5009516;28;20050;-87
2023/06/16 04:02:48;;;;;;;12.38;0.65;;;11.80;99.90;;;;;;5009765;28;20049;-87
2023/06/16 04:05:13;;;;;;;2.75;0.55;;;12.00;2.90;;;;;;5009812;28;20050;-88
2023/06/16 04:07:39;;;;;;;0.22;0.22;;;13.20;1.00;;;;;;5008209;28;20058;-87
2023/06/16 04:10:05;;;;;;;2.45;0.93;;;12.90;1.00;;;;;;5011170;28;20136;-87
2023/06/16 04:12:31;;;;;;;1.10;0.40;;;12.40;1.00;;;;;;5025010;28;20050;-87
2023/06/16 04:14:58;;;;;;;0.50;0.50;;;13.10;1.00;;;;;;5010483;28;20052;-87
2023/06/16 04:17:23;;;;;;;1.23;0.63;;;12.70;1.00;;;;;;5026706;28;20093;-87
2023/06/16 04:19:49;;;;;;;0.20;0.20;;;12.70;1.00;;;;;;5024704;28;20049;-87
2023/06/16 04:22:15;;;;;;;1.83;1.23;;;13.40;1.00;;;;;;5024650;28;20060;-87
2023/06/16 04:24:40;;;;;;;1.00;0.65;;;12.80;99.90;;;;;;5027078;28;20050;-89
2023/06/16 04:27:06;;;;;;;11.38;1.73;;;12.90;99.90;;;;;;5020267;28;20550;-87
2023/06/16 04:29:32;;;;;;;0.00;0.00;;;13.10;99.90;;;;;;5014384;28;20050;-87
2023/06/16 04:31:59;;;;;;;1.55;0.70;;;13.40;99.90;;;;;;4996539;28;20038;-87
2023/06/16 04:34:25;;;;;;;0.82;0.55;;;13.80;1.00;;;;;;5011872;28;20090;-87
2023/06/16 04:36:51;;;;;;;2.38;1.13;;;13.80;99.90;;;;;;5010574;28;20060;-87
2023/06/16 04:39:17;;;;;;;0.90;0.60;;;14.40;99.90;;;;;;5011596;28;20045;-87
2023/06/16 04:41:43;;;;;;;2.55;0.40;;;15.00;99.90;;;;;;5009032;28;20042;-86
2023/06/16 04:44:09;;;;;;;0.77;0.50;;;14.10;17.20;;;;;;5009040;28;20053;-88
2023/06/16 04:46:36;;;;;;;0.40;0.28;;;14.40;93.20;;;;;;5007056;28;20497;-86
2023/06/16 04:49:02;;;;;;;0.55;0.30;;;14.10;99.90;;;;;;5007359;28;20045;-87
2023/06/16 04:51:28;;;;;;;0.30;0.17;;;14.50;99.90;;;;;;5007116;28;20140;-87
2023/06/16 04:53:53;;;;;;;1.60;0.55;;;15.40;49.60;;;;;;5009242;28;20057;-87
2023/06/16 04:56:19;;;;;;;0.52;0.50;;;17.30;99.90;;;;;;5008813;28;20128;-89
2023/06/16 04:58:45;;;;;;;0.30;0.30;;;17.50;99.90;;;;;;5007555;28;20520;-87
2023/06/16 05:01:11;;;;;;;0.32;0.22;;;18.40;99.90;;;;;;5008855;28;20095;-88
2023/06/16 05:03:40;;;;;;;1.35;0.82;;;19.20;99.90;;;;;;4990926;28;20056;-88
2023/06/16 05:06:05;;;;;;;0.10;0.10;;;19.90;99.90;;;;;;5008928;28;20145;-87
2023/06/16 05:08:32;;;;;;;0.90;0.45;;;20.40;99.90;;;;;;5008874;28;20140;-87
2023/06/16 05:10:58;;;;;;;1.05;0.93;;;20.90;99.90;;;;;;5009414;28;20060;-87
2023/06/16 05:13:23;;;;;;;0.73;0.60;;;21.30;99.90;;;;;;5009456;28;20049;-86
2023/06/16 05:15:49;;;;;;;1.33;0.88;;;21.70;1.00;;;;;;5009238;28;20143;-86
2023/06/16 05:18:15;;;;;;;0.70;0.57;;;22.00;10.40;;;;;;5008888;28;20079;-88
2023/06/16 05:21:00;;;;;;;6.75;0.82;;;22.40;1.00;;;;;;5007363;28;20108;-88
2023/06/16 05:23:25;;;;;;;0.20;0.20;;;22.90;1.00;;;;;;5008129;28;20050;-89
2023/06/16 05:25:52;;;;;;;0.47;0.40;;;23.20;1.00;;;;;;5041594;28;20045;-88
2023/06/16 05:28:20;;;;;;;0.75;0.57;;;23.60;1.00;;;;;;5046351;28;20052;-89
2023/06/16 05:30:46;;;;;;;0.60;0.60;;;24.00;1.00;;;;;;5029803;28;20098;-89
2023/06/16 05:33:21;;;;;;;0.75;0.55;;;24.30;1.00;;;;;;5047639;28;20052;-90
2023/06/16 05:35:51;;;;;;;1.65;0.68;;;24.70;99.90;;;;;;5048436;28;20127;-87
2023/06/16 05:38:16;;;;;;;4.95;1.52;;;25.00;99.90;;;;;;5047677;28;20118;-85
2023/06/16 05:40:42;;;;;;;0.10;0.10;;;25.00;99.90;;;;;;5045835;28;20045;-87
2023/06/16 05:43:08;;;;;;;1.05;0.70;;;25.00;99.90;;;;;;5045702;28;20045;-87
2023/06/16 05:45:34;;;;;;;0.90;0.57;;;24.90;99.90;;;;;;5044861;28;20053;-85
2023/06/16 05:47:59;;;;;;;3.75;1.83;;;24.60;99.90;;;;;;5045406;28;20041;-85
2023/06/16 05:50:25;;;;;;;2.40;0.30;;;25.80;99.90;;;;;;5043444;28;20056;-85
2023/06/16 05:52:51;;;;;;;0.00;0.00;;;25.30;99.90;;;;;;5043821;28;20041;-85
2023/06/16 05:55:16;;;;;;;0.45;0.45;;;25.60;99.90;;;;;;5045216;28;20049;-86
2023/06/16 05:57:42;;;;;;;0.60;0.52;;;26.20;99.90;;;;;;5025059;28;20053;-86
2023/06/16 06:00:09;;;;;;;0.80;0.60;;;26.60;99.90;;;;;;5025793;28;20764;-85
2023/06/16 06:02:35;;;;;;;0.80;0.75;;;26.00;99.90;;;;;;5024501;28;20132;-85
2023/06/16 06:05:00;;;;;;;0.45;0.38;;;26.30;99.90;;;;;;5029720;28;20181;-86
2023/06/16 06:07:26;;;;;;;0.52;0.52;;;25.80;99.90;;;;;;5030562;28;20049;-86
2023/06/16 06:09:55;;;;;;;1.35;1.25;;;25.90;99.90;;;;;;5029843;28;20092;-86
2023/06/16 06:12:21;;;;;;;0.45;0.17;;;25.70;99.90;;;;;;5027761;28;20037;-85
2023/06/16 06:14:47;;;;;;;0.88;0.75;;;25.90;99.90;;;;;;5029180;28;20045;-86
2023/06/16 06:17:12;;;;;;;1.00;0.35;;;25.70;99.90;;;;;;5030054;28;20119;-86
2023/06/16 06:19:38;;;;;;;1.13;0.57;;;26.10;99.90;;;;;;5030818;28;20056;-87
2023/06/16 06:22:04;;;;;;;0.95;0.73;;;26.20;99.90;;;;;;5029490;28;20117;-86
2023/06/16 06:24:29;;;;;;;1.73;0.77;;;26.80;99.90;;;;;;5030126;28;20400;-86
2023/06/16 06:26:57;;;;;;;1.75;0.90;;;26.80;99.90;;;;;;5030144;28;20078;-85
2023/06/16 06:29:22;;;;;;;0.55;0.47;;;27.20;99.90;;;;;;5029923;28;20049;-86
2023/06/16 06:31:48;;;;;;;2.80;0.57;;;27.50;99.90;;;;;;5030096;28;20042;-86
2023/06/16 06:34:16;;;;;;;2.78;0.98;;;27.30;99.90;;;;;;5029974;28;20092;-86
2023/06/16 06:36:42;;;;;;;3.03;0.80;;;27.20;99.90;;;;;;5030286;28;20057;-85
2023/06/16 06:39:08;;;;;;;0.88;0.60;;;26.60;99.90;;;;;;5028355;28;20049;-84
2023/06/16 06:41:34;;;;;;;0.50;0.30;;;26.90;99.90;;;;;;5029659;28;20130;-84
2023/06/16 06:44:00;;;;;;;0.20;0.20;;;27.50;99.90;;;;;;5030570;28;20486;-87
2023/06/16 06:46:26;;;;;;;0.57;0.30;;;28.10;99.90;;;;;;5030398;28;20057;-88
2023/06/16 06:48:52;;;;;;;1.02;0.80;;;28.40;99.90;;;;;;5030293;28;20045;-87
2023/06/16 06:51:17;;;;;;;1.67;0.95;;;28.00;99.90;;;;;;5012994;28;20064;-88
2023/06/16 06:53:43;;;;;;;0.20;0.20;;;27.80;99.90;;;;;;5030704;28;20080;-88
2023/06/16 06:56:09;;;;;;;0.57;0.55;;;28.00;99.90;;;;;;5028401;28;20049;-89
2023/06/16 06:58:35;;;;;;;5.47;0.55;;;28.80;99.90;;;;;;5029829;28;20049;-89
2023/06/16 07:01:01;;;;;;;1.23;1.00;;;28.00;99.90;;;;;;5030952;28;20049;-89
2023/06/16 07:03:27;;;;;;;1.60;0.68;;;27.50;99.90;;;;;;5032400;28;20057;-87
2023/06/16 07:05:53;;;;;;;0.55;0.43;;;27.50;99.90;;;;;;5030954;28;20041;-88
2023/06/16 07:08:19;;;;;;;1.80;0.65;;;27.80;99.90;;;;;;5029278;28;20049;-88
2023/06/16 07:10:45;;;;;;;0.43;0.32;;;28.50;99.90;;;;;;5028183;28;20128;-88
2023/06/16 07:13:11;;;;;;;0.38;0.38;;;29.00;99.90;;;;;;5028710;28;20491;-88
2023/06/16 07:15:36;;;;;;;1.17;0.43;;;29.40;99.90;;;;;;5011943;28;20050;-87
2023/06/16 07:18:04;;;;;;;0.10;0.10;;;27.70;99.90;;;;;;5030206;28;20538;-88
2023/06/16 07:20:50;;;;;;;0.45;0.45;;;28.20;99.90;;;;;;5028663;28;20070;-87
2023/06/16 07:23:16;;;;;;;3.30;0.30;;;28.20;99.90;;;;;;5030313;28;20061;-89
2023/06/16 07:25:42;;;;;;;0.65;0.45;;;28.40;99.90;;;;;;5029840;28;20053;-88
2023/06/16 07:28:13;;;;;;;0.43;0.40;;;28.60;99.90;;;;;;5012422;28;20396;-88
2023/06/16 07:30:39;;;;;;;0.52;0.40;;;28.80;99.90;;;;;;5028241;28;20042;-88
2023/06/16 07:33:06;;;;;;;1.88;1.27;;;29.70;99.90;;;;;;5030619;28;20132;-88
2023/06/16 07:35:36;;;;;;;1.48;0.90;;;30.20;99.90;;;;;;5031841;28;20052;-88
2023/06/16 07:38:01;;;;;;;0.75;0.52;;;29.00;99.90;;;;;;5032111;28;20809;-88
2023/06/16 07:40:27;;;;;;;1.58;0.50;;;28.90;99.90;;;;;;5031895;28;20060;-88
2023/06/16 07:42:53;;;;;;;15.95;1.65;;;29.50;99.90;;;;;;5030750;28;20088;-88
2023/06/16 07:45:31;;;;;;;1.83;0.68;;;28.70;99.90;;;;;;5031254;28;20053;-88
2023/06/16 07:48:14;;;;;;;1.55;1.00;;;28.90;99.90;;;;;;5049331;28;20053;-88
2023/06/16 07:50:40;;;;;;;0.65;0.60;;;28.50;99.90;;;;;;5052888;28;20052;-88
2023/06/16 07:53:06;;;;;;;1.55;0.85;;;28.90;99.90;;;;;;5053561;28;20045;-88
2023/06/16 07:55:32;;;;;;;0.63;0.35;;;28.50;99.90;;;;;;5055030;28;20069;-87
2023/06/16 07:58:01;;;;;;;0.17;0.17;;;29.30;99.90;;;;;;5053940;28;20040;-88
2023/06/16 08:00:29;;;;;;;0.30;0.30;;;29.70;99.90;;;;;;5038054;28;20044;-89
2023/06/16 08:02:55;;;;;;;1.15;0.68;;;30.30;99.90;;;;;;5054853;28;20051;-89
2023/06/16 08:05:21;;;;;;;0.00;0.00;;;30.40;99.90;;;;;;5055440;28;20045;-88
2023/06/16 08:07:46;;;;;;;0.00;0.00;;;30.40;99.90;;;;;;5054782;28;20033;-89
2023/06/16 08:10:12;;;;;;;0.30;0.30;;;30.00;99.90;;;;;;5039826;28;20187;-88
2023/06/16 08:12:38;;;;;;;11.90;0.73;;;30.50;99.90;;;;;;5031749;28;20045;-87
2023/06/16 08:15:08;;;;;;;0.32;0.22;;;30.90;99.90;;;;;;5034744;28;20064;-87
2023/06/16 08:17:33;;;;;;;1.55;0.88;;;31.10;99.90;;;;;;5056538;28;20056;-88
2023/06/16 08:19:59;;;;;;;0.70;0.40;;;31.70;99.90;;;;;;5056010;28;20042;-88
2023/06/16 08:22:25;;;;;;;0.40;0.35;;;31.50;99.90;;;;;;5055764;28;20045;-87
2023/06/16 08:24:51;;;;;;;1.02;0.80;;;31.30;99.90;;;;;;5056027;28;20040;-88
2023/06/16 08:27:16;;;;;;;0.40;0.32;;;30.80;99.90;;;;;;5052207;28;20045;-88
2023/06/16 08:29:42;;;;;;;0.15;0.15;;;30.50;99.90;;;;;;5037779;28;20037;-89
2023/06/16 08:32:08;;;;;;;0.28;0.28;;;30.40;99.90;;;;;;5014228;28;20563;-88
2023/06/16 08:34:35;;;;;;;0.30;0.28;;;30.40;99.90;;;;;;5031103;28;20049;-89
2023/06/16 08:37:01;;;;;;;1.85;0.52;;;29.80;99.90;;;;;;5027211;28;20053;-88
2023/06/16 08:39:27;;;;;;;0.80;0.40;;;29.40;99.90;;;;;;5004745;28;20623;-87
2023/06/16 08:41:53;;;;;;;2.22;1.45;;;29.40;99.90;;;;;;5005345;28;20080;-89
2023/06/16 08:44:21;;;;;;;1.35;0.70;;;30.50;99.90;;;;;;5020882;28;20120;-88
2023/06/16 08:46:48;;;;;;;2.40;0.50;;;30.40;99.90;;;;;;5007325;28;20046;-87
2023/06/16 08:49:16;;;;;;;0.93;0.38;;;30.90;99.90;;;;;;4988984;28;20133;-88
2023/06/16 08:51:50;;;;;;;1.95;0.50;;;30.70;99.90;;;;;;5005652;28;20064;-89
2023/06/16 08:54:19;;;;;;;0.95;0.85;;;30.30;99.90;;;;;;5004885;28;20104;-88
2023/06/16 08:56:50;;;;;;;1.10;0.38;;;30.40;99.90;;;;;;5006279;28;20045;-87
2023/06/16 08:59:17;;;;;;;0.75;0.75;;;31.00;99.90;;;;;;5005842;28;20092;-88
2023/06/16 09:01:44;;;;;;;1.38;0.50;;;31.10;99.90;;;;;;5020899;28;20050;-88
2023/06/16 09:04:09;;;;;;;0.15;0.15;;;31.20;92.90;;;;;;5021207;28;20053;-88
2023/06/16 09:06:36;;;;;;;0.47;0.40;;;31.60;92.30;;;;;;4989561;28;20507;-88
2023/06/16 09:09:03;;;;;;;0.57;0.20;;;32.30;92.10;;;;;;5006741;28;20148;-87
2023/06/16 09:11:31;;;;;;;0.35;0.35;;;32.40;14.80;;;;;;5006201;28;20054;-88
2023/06/16 09:13:57;;;;;;;0.10;0.10;;;32.40;3.90;;;;;;5004460;28;20096;-89
2023/06/16 09:16:24;;;;;;;1.42;0.30;;;31.40;1.00;;;;;;5005425;28;20594;-89
2023/06/16 09:18:50;;;;;;;0.75;0.38;;;32.10;1.00;;;;;;5005528;28;20046;-89
2023/06/16 09:21:24;;;;;;;0.00;0.00;;;32.90;1.00;;;;;;5003469;28;20050;-88
2023/06/16 09:23:57;;;;;;;0.43;0.43;;;32.60;1.00;;;;;;5007288;28;20057;-88
2023/06/16 09:26:24;;;;;;;0.45;0.20;;;32.50;1.00;;;;;;5005785;28;20484;-88
2023/06/16 09:28:51;;;;;;;0.30;0.17;;;32.10;1.00;;;;;;5004736;28;21159;-88
2023/06/16 09:31:18;;;;;;;0.43;0.28;;;32.30;1.00;;;;;;5019909;28;20080;-88
2023/06/16 09:33:43;;;;;;;0.00;0.00;;;32.80;1.00;;;;;;5003385;28;20057;-88
2023/06/16 09:36:09;;;;;;;1.65;0.95;;;32.30;1.00;;;;;;5020216;28;20052;-88
2023/06/16 09:38:40;;;;;;;21.15;1.40;;;32.50;1.00;;;;;;5007410;28;20053;-88
2023/06/16 09:41:15;;;;;;;0.35;0.30;;;32.30;1.00;;;;;;5010599;28;20527;-88
2023/06/16 09:43:42;;;;;;;0.10;0.10;;;32.80;1.00;;;;;;5025046;28;20148;-87
2023/06/16 09:46:19;;;;;;;0.38;0.30;;;32.50;1.00;;;;;;5023884;28;20049;-87
2023/06/16 09:48:49;;;;;;;0.75;0.68;;;31.60;1.00;;;;;;5009190;28;20432;-88
2023/06/16 09:51:25;;;;;;;0.52;0.43;;;31.70;1.00;;;;;;5008704;28;20118;-89
2023/06/16 09:54:08;;;;;;;0.32;0.30;;;31.40;1.00;;;;;;5005847;28;20060;-87
2023/06/16 09:56:34;;;;;;;0.88;0.28;;;31.70;1.00;;;;;;5009220;28;20245;-87
2023/06/16 09:59:00;;;;;;;0.43;0.35;;;31.60;1.00;;;;;;5024119;28;20141;-88
2023/06/16 10:01:29;;;;;;;0.60;0.20;;;31.60;1.00;;;;;;5023595;28;20046;-89
2023/06/16 10:03:55;;;;;;;0.10;0.10;;;30.80;1.00;;;;;;5008721;28;20045;-87
2023/06/16 10:06:28;;;;;;;0.43;0.25;;;30.40;1.00;;;;;;5006956;28;20054;-88
2023/06/16 10:08:55;;;;;;;0.17;0.15;;;30.20;1.00;;;;;;4990181;28;20061;-88
2023/06/16 10:11:24;;;;;;;0.38;0.20;;;29.90;1.00;;;;;;5008952;28;20057;-87
2023/06/16 10:13:56;;;;;;;1.17;0.90;;;29.40;1.00;;;;;;5023332;28;20057;-87
2023/06/16 10:16:27;;;;;;;0.05;0.03;;;29.00;1.00;;;;;;5023764;28;20049;-88
2023/06/16 10:19:06;;;;;;;0.25;0.13;;;28.40;1.00;;;;;;5024324;28;20056;-88
2023/06/16 10:21:32;;;;;;;0.35;0.30;;;28.70;1.00;;;;;;5009164;28;20065;-87
2023/06/16 10:24:00;;;;;;;0.20;0.20;;;28.30;99.90;;;;;;5024058;28;20046;-88
2023/06/16 10:26:26;;;;;;;0.25;0.15;;;28.40;99.90;;;;;;5009205;28;20113;-87
2023/06/16 10:28:52;;;;;;;0.10;0.10;;;28.50;99.90;;;;;;5008522;28;20054;-87
2023/06/16 10:31:18;;;;;;;0.32;0.32;;;27.90;99.90;;;;;;5023920;28;20080;-88
2023/06/16 10:33:55;;;;;;;0.10;0.10;;;28.00;99.90;;;;;;5023953;28;20054;-87
2023/06/16 10:36:38;;;;;;;0.45;0.40;;;28.40;1.00;;;;;;5023118;28;20050;-88
2023/06/16 10:39:12;;;;;;;0.10;0.10;;;28.10;99.90;;;;;;5023187;28;20058;-88
2023/06/16 10:41:54;;;;;;;0.17;0.17;;;28.20;99.90;;;;;;5023861;28;20374;-86
2023/06/16 10:44:26;;;;;;;0.08;0.08;;;28.10;99.90;;;;;;5023330;28;20042;-88
2023/06/16 10:47:13;;;;;;;0.28;0.28;;;28.20;99.90;;;;;;5022945;28;20053;-88
2023/06/16 10:50:00;;;;;;;0.17;0.15;;;28.30;99.90;;;;;;5021879;28;20112;-87
2023/06/16 10:52:28;;;;;;;0.15;0.15;;;28.50;99.90;;;;;;5007509;28;20060;-88
2023/06/16 10:54:55;;;;;;;0.17;0.17;;;29.00;99.90;;;;;;5007819;28;20085;-88
2023/06/16 10:57:22;;;;;;;0.17;0.15;;;29.10;99.90;;;;;;5023450;28;20053;-87
2023/06/16 11:00:16;;;;;;;0.32;0.32;;;28.80;99.90;;;;;;5007319;28;20492;-88
2023/06/16 11:02:50;;;;;;;0.13;0.13;;;28.90;99.90;;;;;;4990050;28;20496;-89
2023/06/16 11:05:18;;;;;;;0.03;0.03;;;28.80;99.90;;;;;;5023370;28;20049;-87
2023/06/16 11:08:08;;;;;;;0.30;0.20;;;28.60;99.90;;;;;;5007301;28;20489;-88
2023/06/16 11:10:49;;;;;;;6.22;0.60;;;28.30;99.90;;;;;;5023321;28;20356;-88
2023/06/16 11:13:15;;;;;;;1.73;0.68;;;28.40;99.90;;;;;;5023469;28;20879;-88
2023/06/16 11:15:45;;;;;;;0.00;0.00;;;28.00;99.90;;;;;;5007783;28;20046;-87
2023/06/16 11:18:12;;;;;;;2.28;0.50;;;27.90;99.90;;;;;;5004209;28;20592;-89
2023/06/16 11:20:39;;;;;;;0.13;0.13;;;28.10;99.90;;;;;;5007557;28;20046;-88
2023/06/16 11:23:05;;;;;;;0.45;0.38;;;28.10;99.90;;;;;;5006320;28;20112;-87
2023/06/16 11:25:31;;;;;;;0.22;0.22;;;28.50;99.90;;;;;;5007743;28;20738;-89
2023/06/16 11:27:57;;;;;;;1.25;0.65;;;28.50;99.90;;;;;;5007210;28;20060;-88
2023/06/16 11:30:24;;;;;;;0.00;0.00;;;27.90;99.90;;;;;;5007469;28;20381;-87
2023/06/16 11:32:50;;;;;;;3.70;1.15;;;28.20;99.90;;;;;;5006436;28;20103;-88
2023/06/16 11:35:18;;;;;;;0.70;0.25;;;29.00;99.90;;;;;;5022886;28;20054;-88
2023/06/16 11:37:49;;;;;;;0.20;0.15;;;29.50;99.90;;;;;;5022402;28;20405;-88
2023/06/16 11:40:28;;;;;;;0.55;0.55;;;29.90;99.90;;;;;;5022024;28;20045;-87
2023/06/16 11:43:00;;;;;;;0.52;0.52;;;30.40;99.90;;;;;;5022632;28;20420;-88
2023/06/16 11:45:29;;;;;;;0.43;0.30;;;31.20;99.90;;;;;;5007476;28;20053;-88
2023/06/16 11:47:56;;;;;;;1.33;0.47;;;31.20;99.90;;;;;;5007939;28;20057;-88
2023/06/16 11:50:22;;;;;;;15.32;3.75;;;30.90;99.90;;;;;;5007602;28;20490;-88
2023/06/16 11:52:49;;;;;;;0.38;0.38;;;30.40;99.90;;;;;;5021723;28;20054;-88
2023/06/16 11:55:15;;;;;;;0.73;0.30;;;31.00;99.90;;;;;;5007767;28;20085;-88
2023/06/16 11:57:41;;;;;;;0.43;0.28;;;31.90;99.90;;;;;;5022165;28;20521;-88
2023/06/16 12:00:09;;;;;;;3.15;1.33;;;32.50;99.90;;;;;;5021230;28;20390;-88
2023/06/16 12:02:36;;;;;;;0.30;0.30;;;32.90;99.90;;;;;;5006325;28;20129;-89
2023/06/16 12:05:11;;;;;;;0.05;0.05;;;33.10;99.90;;;;;;5006661;28;20045;-89
2023/06/16 12:07:37;;;;;;;4.65;1.00;;;32.20;99.90;;;;;;5006170;28;20050;-89
2023/06/16 12:10:03;;;;;;;0.10;0.10;;;32.30;99.90;;;;;;5006675;28;20057;-88
2023/06/16 12:12:33;;;;;;;0.85;0.32;;;33.10;99.90;;;;;;5006623;28;20049;-87
2023/06/16 12:15:00;;;;;;;0.43;0.43;;;32.10;99.90;;;;;;5006109;28;20045;-87
2023/06/16 12:17:26;;;;;;;0.60;0.28;;;31.80;99.90;;;;;;5004848;28;20085;-87
2023/06/16 12:19:52;;;;;;;0.20;0.10;;;32.70;99.90;;;;;;5005427;28;20089;-88
2023/06/16 12:22:18;;;;;;;0.05;0.05;;;32.10;99.90;;;;;;5006511;28;20072;-88
2023/06/16 12:24:44;;;;;;;0.38;0.30;;;32.10;99.90;;;;;;5021334;28;20493;-88
2023/06/16 12:27:21;;;;;;;0.10;0.10;;;32.40;99.90;;;;;;4988936;28;20046;-88
2023/06/16 12:29:47;;;;;;;0.47;0.40;;;31.90;99.90;;;;;;5020917;28;20069;-88
2023/06/16 12:32:13;;;;;;;0.30;0.28;;;32.20;99.90;;;;;;5006809;28;20381;-87
2023/06/16 12:34:38;;;;;;;0.08;0.00;;;32.50;99.90;;;;;;5021201;28;20054;-89
2023/06/16 12:37:07;;;;;;;0.85;0.63;;;32.40;99.90;;;;;;5004227;28;20132;-88
2023/06/16 12:39:42;;;;;;;0.32;0.30;;;32.90;99.90;;;;;;5005099;28;20623;-88
2023/06/16 12:42:11;;;;;;;;;;;32.00;99.90;;;;;;5035169;28;20061;-88
2023/06/16 12:44:45;;;;;;;0.28;0.28;;;32.30;99.90;;;;;;5019786;28;19925;-88
2023/06/16 12:47:18;;;;;;;0.20;0.20;;;31.60;99.90;;;;;;5034755;28;20096;-88
2023/06/16 12:49:44;;;;;;;0.35;0.20;;;31.60;99.90;;;;;;5037916;28;20100;-88
2023/06/16 12:52:12;;;;;;;0.95;0.75;;;31.20;99.90;;;;;;5035455;28;20048;-88